Facundo Flores

Scout - San Lorenzo
3 Apr 2027
Samstag
Verarbeitung

Persönlichkeit

Anpassungsfähigkeit (1) Ehrgeiz (11) Kontroverse (11) Loyalität (18) Druck (8) Professionalität (6) Fairness (20) Temperament (11)

Profil

Trainerstil Demokratisch
Lizenz Kontinentale Pro
Entschlossenheit 10
Menschenführung 7
Motivation 10
Disziplin 13
Arbeitszufriedenheit
63%
Ermüdung
0%
Rolle Scout
Gehalt 95.7K p/W
Vertrag 14.03.2028

Leistung

Verhalten Gut
Trainingseffektivität
30%
Spielerentwicklung
40%
Verletzungsprävention
35%
Taktische Umsetzung
50%

Letzte Ereignisse

Spieler begutachtet jetzt
Nahm an einer Scouting-Besprechung teil jetzt
Spieler begutachtet jetzt
Spieler begutachtet jetzt
Spieler begutachtet 7T her
Spieler begutachtet 7T her
Spieler begutachtet 7T her
Spieler begutachtet 7T her

Aktuell beobachtet

287
Spieler Verein Status Fähigkeit Vertrauen Beobachtet Zuletzt beobachtet Letzte Stimme
Julio Alonso Huesca Aktiv 122 / 111 40% 5 02.04.2027 -
Valentin Rosier Osasuna Aktiv 133 / 126 40% 4 02.04.2027 -
Morgan Whittaker Middlesbrough Aktiv 130 / 131 40% 3 02.04.2027 -
Sergey Pinyaev Lokomotiv Moscow Aktiv 133 / 139 40% 3 01.04.2027 -
Emile Smith Rowe Fulham Aktiv 156 / 145 40% 3 01.04.2027 -
Oscar Bobb Fulham Aktiv 139 / 141 40% 2 01.04.2027 -
Vitaly Janelt Brentford Aktiv 136 / 134 40% 2 31.03.2027 -
Kobbie Mainoo Manchester United Aktiv 155 / 152 40% 2 31.03.2027 -
Ryan Alebiosu Blackburn Rovers Aktiv 121 / 138 40% 1 31.03.2027 -
Jon Ander Olasagasti Levante Aktiv 127 / 135 40% 1 31.03.2027 -
Haji Wright Coventry City Aktiv 127 / 125 40% 1 31.03.2027 -
Óscar Al-Diriyah Aktiv 123 / 133 40% 7 29.03.2027 -
Luciano Gondou CSKA Moscow Aktiv 137 / 124 40% 5 29.03.2027 -
Moussa Diaby Al-Ittihad Aktiv 144 / 157 40% 5 29.03.2027 -
Aitor Ruibal Betis Aktiv 138 / 140 40% 1 28.03.2027 -
Viti Rozada Las Palmas Aktiv 126 / 122 40% 1 28.03.2027 -
Tomás Marchiori Vélez Aktiv 134 / 126 40% 3 26.03.2027 -
Pierce Charles Manchester City Aktiv 118 / 126 40% 1 26.03.2027 -
Melker Ellborg Sunderland Aktiv 130 / 113 40% 1 26.03.2027 -
Michel Ndary Adopo Cagliari Aktiv 133 / 133 40% 3 24.03.2027 -
César Montes Lokomotiv Moscow Aktiv 135 / 134 40% 2 24.03.2027 -
Imrân Louza Watford Aktiv 138 / 130 40% 1 24.03.2027 -
Thierry Rendall Correia Venezia Aktiv 144 / 137 40% 3 23.03.2027 -
Bart van Rooij Twente Aktiv 135 / 135 40% 4 23.03.2027 -
Maximilian Mittelstädt VfB Stuttgart Aktiv 147 / 160 40% 1 23.03.2027 -
Julian Weigl Al-Qadisiyah Aktiv 136 / 137 40% 2 22.03.2027 -
Facundo Garcés Alavés Aktiv 136 / 137 40% 1 22.03.2027 -
Nahitan Nández Al-Qadisiyah Aktiv 138 / 153 40% 1 22.03.2027 -
Josh Brownhill Al-Shabab Aktiv 135 / 127 40% 2 21.03.2027 -
Luke Thomas Leicester City Aktiv 128 / 128 40% 3 21.03.2027 -
Morlaye Sylla Damac Aktiv 124 / 125 40% 2 20.03.2027 -
Robin Fellhauer FC Augsburg Aktiv 137 / 130 40% 1 20.03.2027 -
Mohamed Simakan Al-Nassr Aktiv 139 / 149 40% 2 19.03.2027 -
Luka Vušković Brighton Aktiv 138 / 138 40% 1 19.03.2027 -
Diego Costa Krasnodar Aktiv 137 / 145 40% 1 18.03.2027 -
Antonino Gallo Lecce Aktiv 130 / 143 40% 1 18.03.2027 -
Felipe Zenobio Tigre Aktiv 133 / 137 40% 4 17.03.2027 -
Oliver Dovin Coventry City Aktiv 130 / 128 40% 2 17.03.2027 -
Adrian Šemper Al-Fateh Aktiv 135 / 125 40% 1 17.03.2027 -
Theo Bongonda Al-Faisaly Aktiv 134 / 133 40% 2 16.03.2027 -
Noah Sadiki Sunderland Aktiv 150 / 140 40% 3 16.03.2027 -
Axel Openda KV Oostende Aktiv 139 / 125 40% 7 15.03.2027 -
Ibrahim Cissoko Zwolle Aktiv 120 / 120 40% 1 15.03.2027 -
Zelimkhan Bakaev Lokomotiv Moscow Aktiv 124 / 120 40% 2 14.03.2027 -
Galeno Al-Ahli Aktiv 156 / 142 40% 3 14.03.2027 -
Kingsley Coman Al-Nassr Aktiv 152 / 164 40% 3 13.03.2027 -
Ander Barrenetxea Real Sociedad Aktiv 147 / 159 40% 2 12.03.2027 -
Steven Bergwijn Al-Ittihad Aktiv 143 / 141 40% 1 12.03.2027 -
Marquinhos Spartak Moscow Aktiv 138 / 122 40% 3 10.03.2027 -
Luiz Henrique Zenit Aktiv 153 / 143 40% 1 10.03.2027 -
Yassine Benzia Al-Fayha Aktiv 124 / 117 40% 1 10.03.2027 -
Jaden Philogene Ipswich Town Aktiv 140 / 139 40% 2 08.03.2027 -
Fashion Sakala Al-Fayha Aktiv 122 / 123 40% 8 07.03.2027 -
José Paradela Cruz Azul Aktiv 144 / 138 40% 3 06.03.2027 -
Stanley Mills Oxford United Aktiv 119 / 118 40% 2 06.03.2027 -
Gustavo Mantuan Zenit Aktiv 138 / 130 40% 4 06.03.2027 -
Esequiel Barco Spartak Moscow Aktiv 137 / 130 40% 3 06.03.2027 -
Iqraam Rayners Mamelodi Sundowns Aktiv 133 / 126 40% 2 06.03.2027 -
Rubens Dinamo Moscow Aktiv 124 / 136 40% 2 05.03.2027 -
Morten Frendrup Genoa Aktiv 147 / 139 40% 2 05.03.2027 -
Rúben Neves Al-Hilal Aktiv 155 / 156 40% 1 01.03.2027 -
Musa Barrow Al-Khaleej Aktiv 143 / 135 40% 3 28.02.2027 -
Batxi Krasnodar Aktiv 124 / 131 40% 1 28.02.2027 -
Teboho Mokoena Mamelodi Sundowns Aktiv 128 / 143 40% 5 27.02.2027 -
Samú Al-Nassr Aktiv 149 / 155 40% 2 27.02.2027 -
Andrew Moran Preston Aktiv 126 / 121 40% 1 27.02.2027 -
Danil Krugovoy CSKA Moscow Aktiv 129 / 127 40% 1 27.02.2027 -
Moisés CSKA Moscow Aktiv 125 / 137 40% 2 24.02.2027 -
Sidney Lima Santa Clara Aktiv 127 / 136 40% 1 24.02.2027 -
Marcelo Allende Mamelodi Sundowns Aktiv 134 / 127 40% 2 23.02.2027 -
Natan Betis Aktiv 146 / 137 40% 1 23.02.2027 -
Enrico Delprato Parma Aktiv 140 / 139 40% 1 23.02.2027 -
Crysencio Summerville Al-Hilal Aktiv 138 / 133 40% 1 23.02.2027 -
Chiquinho Alverca Aktiv 130 / 123 40% 1 22.02.2027 -
Ali Youssef Apollon Aktiv 127 / 124 40% 1 22.02.2027 -
Haissem Hassan Bloemfontein Celtic Aktiv 129 / 144 40% 10 21.02.2027 -
Ronaldo Rostov Aktiv 124 / 122 40% 2 19.02.2027 -
Abduvohid Ne'matov Nasaf Aktiv 123 / 119 40% 1 17.02.2027 -
Sander Tangvik Hamburger SV Aktiv 119 / 131 40% 1 17.02.2027 -
Mahamadou Doumbia Al-Ittihad Aktiv 126 / 144 40% 1 16.02.2027 -
Arsène Kouassi FC Lorient Aktiv 130 / 132 40% 2 15.02.2027 -
Jelle Bataille Maccabi Haifa Aktiv 130 / 136 40% 1 15.02.2027 -
Cristopher Fiermarin Defensa y Justicia Aktiv 120 / 128 40% 2 14.02.2027 -
Maxim Borisko CSKA Moscow Aktiv 122 / 112 40% 2 14.02.2027 -
Matevž Vidovšek Olimpija Ljubljana Aktiv 119 / 119 40% 1 14.02.2027 -
Omari Hutchinson Nottingham Forest Aktiv 143 / 155 40% 1 10.02.2027 -
Petar Stanić Ludogorets Aktiv 134 / 145 40% 1 10.02.2027 -
Bernard Tekpetey Ludogorets Aktiv 120 / 133 40% 2 09.02.2027 -
Dominik Takáč Slovan Bratislava Aktiv 126 / 136 40% 1 09.02.2027 -
Leandro Brey Boca Juniors Aktiv 126 / 123 40% 1 07.02.2027 -
Stefan Drljača VfB Stuttgart Aktiv 119 / 118 40% 1 07.02.2027 -
Maarten Paes Ajax Aktiv 132 / 131 40% 1 07.02.2027 -
Mohammed Abu Al-Shamat Al-Qadisiyah Aktiv 120 / 117 40% 1 07.02.2027 -
Luther Billiat Ajax Cape Town Aktiv 129 / 132 40% 3 04.02.2027 -
Dion Lopy Al-Ittihad Aktiv 127 / 133 40% 1 01.02.2027 -
Domagoj Bradarić Hellas Verona Aktiv 129 / 142 40% 1 01.02.2027 -
Jason Al-Fayha Aktiv 121 / 126 40% 4 30.01.2027 -
Camilo Durán Bloemfontein Celtic Aktiv 127 / 128 40% 4 29.01.2027 -
Kirill Glebov CSKA Moscow Aktiv 124 / 132 40% 2 29.01.2027 -
Teboho Williams SuperSport United Aktiv 126 / 128 40% 2 28.01.2027 -
Marco Pineda VfB Stuttgart Aktiv 141 / 129 40% 3 28.01.2027 -
Emmanuel Boateng Hapoel Tel Aviv Aktiv 117 / 109 40% 3 27.01.2027 -
Siyanda Ndlovu Hearts of Oak Aktiv 117 / 116 40% 2 26.01.2027 -
Léo Pereira CSKA Sofia Aktiv 114 / 109 40% 1 26.01.2027 -
Moses Cobnan Krasnodar Aktiv 113 / 115 40% 1 25.01.2027 -
Ilja Vakhania Krasnodar Aktiv 125 / 129 40% 1 23.01.2027 -
Damián Puebla Orenburg Aktiv 129 / 123 40% 1 23.01.2027 -
Hélio Varela Maccabi Tel Aviv Aktiv 126 / 129 40% 1 21.01.2027 -
Nahuel Ulariaga Al Ahli Aktiv 126 / 117 40% 2 14.01.2027 -
Relebohile Mofokeng Orlando Pirates Aktiv 114 / 119 40% 1 13.01.2027 -
Serginho Al Wasl Aktiv 133 / 134 40% 2 10.01.2027 -
Mykola Shaparenko Dynamo Kyiv Aktiv 125 / 126 40% 1 10.01.2027 -
Reda Khadra Qarabag Aktiv 134 / 117 40% 4 09.01.2027 -
Oswin Appollis Orlando Pirates Aktiv 119 / 123 40% 3 09.01.2027 -
Ammar Ramadan DAC Dunajska Streda Aktiv 125 / 115 40% 1 09.01.2027 -
Alejo Dramisino Honved Aktiv 115 / 119 40% 2 06.01.2027 -
Juan Manuel Boselli Krasnodar Aktiv 124 / 129 40% 1 06.01.2027 -
Domagoj Drožđek Tractor Aktiv 131 / 128 40% 3 05.01.2027 -
Itumeleng Tau Ajax Cape Town Aktiv 123 / 114 40% 2 02.01.2027 -
Zizo Al Ahly Aktiv 139 / 136 40% 1 02.01.2027 -
Ali Soliman Masr El Makasa Aktiv 122 / 132 40% 2 31.12.2026 -
Keagan Mothiba SuperSport United Aktiv 113 / 114 40% 2 30.12.2026 -
Alfredo Garcia La Equidad Aktiv 150 / 147 40% 1 30.12.2026 -
Alex Luna Instituto Aktiv 131 / 127 40% 1 26.12.2026 -
John Okoye Ebuka Ittihad Aktiv 120 / 124 40% 1 24.12.2026 -
Leandro Andrade Polissia Aktiv 128 / 119 40% 4 22.12.2026 -
Akinkunmi Amoo Ismaily Aktiv 121 / 117 40% 1 20.12.2026 -
Fernando Valenzuela Queretaro Aktiv 123 / 129 40% 4 18.12.2026 -
Oleh Ocheretko Shakhtar Aktiv 126 / 126 40% 2 17.12.2026 -
Milson Al Jazira Aktiv 132 / 133 40% 1 15.12.2026 -
Keagan Hlatshwayo SuperSport United Aktiv 113 / 115 40% 1 14.12.2026 -
Lucas Cepeda Elche Aktiv 129 / 114 40% 1 14.12.2026 -
Mehdi Hashemnejad Tractor Aktiv 117 / 126 40% 1 12.12.2026 -
Mohammad Mehdi Mohebi Persepolis Aktiv 125 / 103 40% 1 12.12.2026 -
Vinicius Tobias Shakhtar Aktiv 132 / 135 40% 2 09.12.2026 -
Franko Kovačević Ferencvaros Aktiv 123 / 129 40% 1 08.12.2026 -
Jens Petter Hauge Bodo/Glimt Aktiv 147 / 145 40% 2 03.12.2026 -
Facundo Torres Shakhtar Aktiv 134 / 144 40% 1 03.12.2026 -
Jaminton Campaz Rosario Central Aktiv 122 / 117 40% 3 01.12.2026 -
Wessam Abou Ali Columbus Crew Aktiv 135 / 127 40% 2 30.11.2026 -
Ashkan Shojaei Siah Jamegan Aktiv 126 / 132 40% 1 30.11.2026 -
Giorgos Giakoumakis Al Ain Aktiv 134 / 137 40% 1 30.11.2026 -
Helinho Toluca Aktiv 128 / 136 40% 4 29.11.2026 -
Veljko Birmančević Ferencvaros Aktiv 141 / 131 40% 1 29.11.2026 -
Iván Martín Racing Club Aktiv 140 / 139 40% 2 28.11.2026 -
Marcelino Moreno Lanús Aktiv 134 / 127 40% 2 28.11.2026 -
Joel Andersson Ludogorets Aktiv 123 / 126 40% 1 28.11.2026 -
Fernando Costanza Krylya Sovetov Aktiv 118 / 118 40% 1 28.11.2026 -
Soufiane Rahimi Al Ain Aktiv 141 / 144 40% 1 26.11.2026 -
Zack Steffen Colorado Rapids Aktiv 132 / 132 40% 1 25.11.2026 -
Chris Brady Chicago Fire Aktiv 126 / 133 40% 1 25.11.2026 -
Youssef Belammari Al Ahly Aktiv 123 / 112 40% 1 24.11.2026 -
Pablo Ramón Racing Club Aktiv 126 / 131 40% 6 21.11.2026 -
Santiago Ascacíbar Boca Juniors Aktiv 131 / 121 40% 2 21.11.2026 -
Iván Villalba Independiente Rivadavia Aktiv 121 / 121 40% 1 21.11.2026 -
Emanuel Coronel Rosario Central Aktiv 127 / 121 40% 2 20.11.2026 -
Williams Alarcón Boca Juniors Aktiv 126 / 134 40% 1 20.11.2026 -
Luiz Felipe Rayo Vallecano Aktiv 135 / 123 40% 2 19.11.2026 -
Yacine Adli Al-Shabab Aktiv 144 / 132 40% 1 19.11.2026 -
Khuliso Mudau Mamelodi Sundowns Aktiv 128 / 125 40% 2 17.11.2026 -
Gedson Fernandes Spartak Moscow Aktiv 133 / 125 40% 1 17.11.2026 -
Adrián Marín Orlando City Aktiv 127 / 123 40% 3 16.11.2026 -
David Junuzovic Mattersburg Aktiv 137 / 115 40% 3 16.11.2026 -
Rodrigo Herrera Newell's Old Boys Aktiv 125 / 118 40% 1 16.11.2026 -
Sergej Milinković-Savić Al-Hilal Aktiv 159 / 156 40% 2 15.11.2026 -
Arturo Cipriani Astra Aktiv 146 / 138 40% 1 14.11.2026 -
Saúl Salcedo Newell's Old Boys Aktiv 128 / 123 40% 1 14.11.2026 -
Youssef Al Bloushi Al Shabab Aktiv 139 / 149 40% 1 14.11.2026 -
Lucas Souto Defensa y Justicia Aktiv 128 / 124 40% 2 07.11.2026 -
Gianluca Ferrari Atlético Tucumán Aktiv 122 / 118 40% 1 07.11.2026 -
Dayne St. Clair Inter Miami CF Aktiv 125 / 120 40% 3 06.11.2026 -
Kazuki Fujita Avispa Fukuoka Aktiv 116 / 128 40% 1 06.11.2026 -
Ezequiel Centurión River Plate Aktiv 124 / 117 40% 2 05.11.2026 -
Kevin Lomónaco Independiente Aktiv 128 / 126 40% 1 04.11.2026 -
Oscar Salomón Newell's Old Boys Aktiv 127 / 117 40% 2 01.11.2026 -
Yeray Athletic Bilbao Aktiv 144 / 142 40% 1 31.10.2026 -
Franco Cristaldo Talleres Aktiv 133 / 120 40% 1 31.10.2026 -
Victor Lind Hammarby Aktiv 135 / 138 40% 1 25.10.2026 -
Sasha Marcich Lanús Aktiv 131 / 129 40% 1 22.10.2026 -
Joaquín García Vélez Aktiv 123 / 131 40% 1 22.10.2026 -
Pablo Maffeo Olympiacos Aktiv 137 / 130 40% 4 19.10.2026 -
Robert Petkovic Zadar Aktiv 129 / 134 40% 1 19.10.2026 -
Carlos Palacios Boca Juniors Aktiv 124 / 125 40% 2 18.10.2026 -
Matko Miljevic Racing Club Aktiv 121 / 120 40% 1 18.10.2026 -
Franco Ibarra Rosario Central Aktiv 128 / 134 40% 1 17.10.2026 -
Gastón Benedetti Estudiantes Aktiv 119 / 117 40% 1 17.10.2026 -
Philip Zinckernagel Chicago Fire Aktiv 130 / 129 40% 1 16.10.2026 -
Aarón Molinas Defensa y Justicia Aktiv 125 / 120 40% 1 16.10.2026 -
Gastón Lodico Racing Club Aktiv 130 / 134 40% 1 16.10.2026 -
Yuma Suzuki Kashima Antlers Aktiv 137 / 142 40% 2 15.10.2026 -
Keisuke Osako Sanfrecce Hiroshima Aktiv 144 / 135 40% 3 14.10.2026 -
Jindřich Staněk Slavia Prague Aktiv 131 / 141 40% 2 14.10.2026 -
Steven Alzate Atlanta United FC Aktiv 128 / 130 40% 1 14.10.2026 -
Elías Rafn Ólafsson FC Midtjylland Aktiv 127 / 120 40% 1 14.10.2026 -
Afimico Pululu Al-Hazem Aktiv 119 / 133 40% 1 12.10.2026 -
Mateo Mendoza Godoy Cruz Aktiv 128 / 119 40% 1 10.10.2026 -
Lucas Carrizo Newell's Old Boys Aktiv 130 / 123 40% 1 10.10.2026 -
Santiago Cáseres Basel Aktiv 123 / 132 40% 2 09.10.2026 -
Santiago Longo Belgrano Aktiv 121 / 126 40% 1 09.10.2026 -
Felipe Peña Biafore Lanús Aktiv 123 / 129 40% 2 08.10.2026 -
Harry Toffolo Charlotte Football Club Aktiv 124 / 127 40% 1 08.10.2026 -
Matías Galarza Talleres Aktiv 120 / 123 40% 1 07.10.2026 -
Niklas Hedl Rapid Wien Aktiv 121 / 120 40% 1 07.10.2026 -
Aarón Quiros Vélez Aktiv 130 / 118 40% 1 05.10.2026 -
Axel Alderweireld KV Oostende Aktiv 148 / 129 40% 2 04.10.2026 -
Lucas Acosta Aldosivi Aktiv 122 / 114 40% 2 04.10.2026 -
Matt Freese New York City Aktiv 132 / 126 40% 2 03.10.2026 -
Uğurcan Çakır Galatasaray Aktiv 142 / 125 40% 1 03.10.2026 -
Obinna Nwobodo FC Cincinnati Aktiv 129 / 124 40% 1 01.10.2026 -
Emanuel Mammana Vélez Aktiv 132 / 121 40% 1 30.09.2026 -
Ryan Gauld Vancouver Whitecaps Aktiv 137 / 140 40% 3 29.09.2026 -
Diego Luna Real Salt Lake Aktiv 127 / 129 40% 1 29.09.2026 -
Gabriel Neves Estudiantes Aktiv 129 / 117 40% 1 28.09.2026 -
Malte Amundsen Columbus Crew Aktiv 125 / 129 40% 1 28.09.2026 -
Anton Salétros Chicago Fire Aktiv 123 / 129 40% 1 28.09.2026 -
Santiago Montiel Independiente Aktiv 128 / 134 40% 3 26.09.2026 -
Andrés Herrera Columbus Crew Aktiv 128 / 121 40% 1 26.09.2026 -
Vicente Poggi Godoy Cruz Aktiv 126 / 121 40% 1 26.09.2026 -
Rob Holding Colorado Rapids Aktiv 123 / 125 40% 1 26.09.2026 -
Tiago Palacios Estudiantes Aktiv 127 / 129 40% 1 26.09.2026 -
Marcos López San Martín Aktiv 132 / 129 40% 1 26.09.2026 -
Majid Dejagah Gostaresh Foulad Aktiv 117 / 116 40% 1 24.09.2026 -
Marcelo Saracchi Houston Dynamo Aktiv 131 / 124 40% 1 24.09.2026 -
Sebastián Villa Boca Juniors Aktiv 125 / 119 40% 1 24.09.2026 -
Patrick Schulte Columbus Crew Aktiv 125 / 124 40% 1 23.09.2026 -
Gerardo Arteaga Monterrey Aktiv 126 / 123 40% 4 21.09.2026 -
Maílson Al-Taawoun Aktiv 132 / 120 40% 2 21.09.2026 -
Álvaro Angulo Pumas UNAM Aktiv 129 / 129 40% 2 21.09.2026 -
Victor Aznar Cádiz Aktiv 129 / 122 40% 1 21.09.2026 -
Denis Adamov Zenit Aktiv 115 / 133 40% 1 21.09.2026 -
Sergio Garcia La Equidad Aktiv 132 / 128 40% 2 19.09.2026 -
Franco Romero Toluca Aktiv 123 / 133 40% 2 19.09.2026 -
Sergio Barreto Pachuca Aktiv 127 / 128 40% 1 19.09.2026 -
Victor Araujo Veracruz Aktiv 152 / 147 40% 3 17.09.2026 -
Rubén Duarte Pumas UNAM Aktiv 129 / 127 40% 2 17.09.2026 -
Willer Ditta Cruz Azul Aktiv 136 / 129 40% 3 16.09.2026 -
Manuel Capasso Atlas Aktiv 129 / 116 40% 2 16.09.2026 -
Svetoslav Vutsov Levski Aktiv 116 / 121 40% 1 15.09.2026 -
Juan Pablo Domínguez Leon Aktiv 125 / 134 40% 2 13.09.2026 -
Bryan González Guadalajara Aktiv 134 / 123 40% 3 13.09.2026 -
Luís Esteves Atlas Aktiv 126 / 135 40% 2 12.09.2026 -
Diego Lainez Tigres Aktiv 128 / 126 40% 2 12.09.2026 -
Fernando Beltrán Leon Aktiv 128 / 119 40% 2 10.09.2026 -
Richard Ledezma Guadalajara Aktiv 129 / 126 40% 2 10.09.2026 -
Sergio Quintero La Equidad Aktiv 139 / 141 40% 2 10.09.2026 -
Agustín Palavecino Cruz Azul Aktiv 131 / 141 40% 2 08.09.2026 -
Salvador Reyes Leon Aktiv 120 / 126 40% 2 08.09.2026 -
Franco Pardo Santos Laguna Aktiv 123 / 118 40% 2 08.09.2026 -
Nathan Silva Pumas UNAM Aktiv 125 / 131 40% 1 08.09.2026 -
Liam Varela Veracruz Aktiv 126 / 132 40% 1 06.09.2026 -
Luis Malagón Club America Aktiv 140 / 137 40% 2 04.09.2026 -
Orbelín Pineda Monterrey Aktiv 142 / 131 40% 3 04.09.2026 -
Nahuel Furtado Wanderers Aktiv 130 / 122 40% 2 04.09.2026 -
Carlos Acevedo Santos Laguna Aktiv 134 / 120 40% 1 04.09.2026 -
Víctor Dávila Club America Aktiv 131 / 129 40% 2 31.08.2026 -
Nicolas Ramirez La Equidad Aktiv 130 / 137 40% 2 30.08.2026 -
Eliás Montiel Pachuca Aktiv 125 / 137 40% 1 30.08.2026 -
Víctor Guzmán Toluca Aktiv 122 / 129 40% 1 29.08.2026 -
Luis Romo Guadalajara Aktiv 134 / 135 40% 3 27.08.2026 -
Jorge Sánchez Atlas Aktiv 131 / 123 40% 3 26.08.2026 -
Ángel Correa River Plate Aktiv 145 / 147 40% 1 26.08.2026 -
Gonzalo Piovi Cruz Azul Aktiv 129 / 130 40% 1 26.08.2026 -
Israel Reyes Club America Aktiv 135 / 133 40% 2 25.08.2026 -
Ramón Juárez Club America Aktiv 131 / 125 40% 1 25.08.2026 -
Carlos Gruezo Santos Laguna Aktiv 123 / 125 40% 1 25.08.2026 -
Cristian Calderón Pumas UNAM Aktiv 123 / 130 40% 2 24.08.2026 -
Efraín Álvarez Guadalajara Aktiv 133 / 131 40% 2 22.08.2026 -
Fernando Gorriarán Tigres Aktiv 143 / 131 40% 1 22.08.2026 -
Cesar Corona Veracruz Aktiv 129 / 139 40% 1 20.08.2026 -
Sergio Reguilón Inter Miami CF Aktiv 135 / 130 40% 1 20.08.2026 -
Carlos Rodríguez Cruz Azul Aktiv 137 / 138 40% 2 19.08.2026 -
Marcel Ruiz Toluca Aktiv 140 / 139 40% 1 18.08.2026 -
Kevin Álvarez Club America Aktiv 128 / 133 40% 1 16.08.2026 -
Bruno Méndez Toluca Aktiv 122 / 120 40% 1 16.08.2026 -
Sebastián Cáceres Club America Aktiv 137 / 130 40% 2 15.08.2026 -
José Luis Caicedo Barranquilla Aktiv 126 / 129 40% 1 15.08.2026 -
Rodrigo Echeverría Leon Aktiv 135 / 128 40% 2 14.08.2026 -
Federico Pereira Toluca Aktiv 130 / 134 40% 1 14.08.2026 -
Cristian Montero Veracruz Aktiv 133 / 128 40% 1 14.08.2026 -
Ľubomír Belko Viking Aktiv 131 / 117 40% 1 13.08.2026 -
Erick Aguirre Monterrey Aktiv 119 / 117 40% 1 11.08.2026 -
Christian Rivera Pachuca Aktiv 127 / 131 40% 1 11.08.2026 -
Nikita Haikin Bodo/Glimt Aktiv 145 / 129 40% 1 08.08.2026 -
Luis Abram Sporting Cristal Aktiv 129 / 123 40% 1 06.08.2026 -
Adonis Frías Atlas Aktiv 126 / 124 40% 1 04.08.2026 -
Rafael Santos Borré River Plate Aktiv 126 / 134 40% 1 02.08.2026 -
Alexandr Sobolev Zenit Aktiv 123 / 122 40% 1 02.08.2026 -